Time;durP1;ratioP1;P1;durP2;ratioP2;P2;SDS_P1;SDS_P2;PMS_P1;PMS_P2;Temp;Humidity;BMP_temperature;BMP_pressure;BME280_temperature;BME280_humidity;BME280_pressure;Samples;Min_cycle;Max_cycle;Signal;HPM_P1;HPM_P2
2021/01/31 00:00:22;;;;;;;18.63;9.05;;;0.10;97.00;;;;;;5021726;28;20224;-65
2021/01/31 00:02:48;;;;;;;18.52;9.25;;;0.00;97.50;;;;;;5020353;28;20014;-66
2021/01/31 00:05:15;;;;;;;17.52;8.93;;;0.10;97.40;;;;;;5022284;28;20026;-65
2021/01/31 00:07:41;;;;;;;19.05;9.07;;;0.10;97.90;;;;;;5021103;28;20053;-64
2021/01/31 00:10:07;;;;;;;19.13;9.15;;;0.10;97.00;;;;;;5022759;28;20020;-65
2021/01/31 00:12:34;;;;;;;22.15;9.30;;;0.10;97.40;;;;;;5022094;28;20518;-65
2021/01/31 00:14:59;;;;;;;17.40;8.88;;;0.20;97.40;;;;;;5020743;28;20050;-66
2021/01/31 00:17:25;;;;;;;17.98;8.55;;;0.20;97.00;;;;;;5022581;28;20399;-65
2021/01/31 00:19:50;;;;;;;16.38;8.55;;;0.20;97.70;;;;;;5020950;28;20025;-65
2021/01/31 00:22:16;;;;;;;17.77;8.48;;;0.30;96.20;;;;;;5019630;28;20056;-64
2021/01/31 00:24:41;;;;;;;17.48;9.02;;;0.10;96.50;;;;;;5022636;28;20560;-65
2021/01/31 00:27:07;;;;;;;15.25;7.97;;;0.10;96.70;;;;;;5020896;28;20022;-65
2021/01/31 00:29:32;;;;;;;15.18;8.30;;;0.20;96.30;;;;;;5023851;28;20507;-65
2021/01/31 00:31:58;;;;;;;16.10;8.68;;;0.00;96.70;;;;;;5024643;28;20038;-65
2021/01/31 00:34:23;;;;;;;17.25;8.82;;;0.00;97.30;;;;;;5020281;28;20136;-65
2021/01/31 00:36:49;;;;;;;16.10;8.30;;;-0.10;96.20;;;;;;5021840;28;20101;-65
2021/01/31 00:39:15;;;;;;;17.40;8.82;;;-0.20;96.80;;;;;;5021633;28;20025;-65
2021/01/31 00:41:43;;;;;;;16.45;8.32;;;-0.30;97.10;;;;;;5020248;28;20025;-65
2021/01/31 00:44:09;;;;;;;16.27;8.60;;;-0.20;97.40;;;;;;5021531;28;20464;-64
2021/01/31 00:46:40;;;;;;;18.77;8.57;;;-0.10;97.50;;;;;;5021212;28;20022;-65
2021/01/31 00:49:06;;;;;;;16.70;7.78;;;-0.10;97.00;;;;;;5011762;28;20030;-64
2021/01/31 00:51:32;;;;;;;15.30;8.32;;;0.00;97.30;;;;;;5011732;28;20129;-64
2021/01/31 00:53:58;;;;;;;14.88;7.82;;;-0.10;96.10;;;;;;5019359;28;20025;-65
2021/01/31 00:56:24;;;;;;;16.52;7.72;;;0.00;96.30;;;;;;5019522;28;20013;-64
2021/01/31 00:58:50;;;;;;;15.93;8.45;;;0.00;97.00;;;;;;5020709;28;20116;-65
2021/01/31 01:01:17;;;;;;;17.90;9.25;;;0.00;96.80;;;;;;5022078;28;20092;-65
2021/01/31 01:03:43;;;;;;;15.40;8.57;;;0.00;96.30;;;;;;5020291;28;20064;-65
2021/01/31 01:06:09;;;;;;;16.52;8.00;;;-0.20;97.00;;;;;;5020857;28;20021;-65
2021/01/31 01:08:34;;;;;;;18.17;8.60;;;-0.10;96.60;;;;;;5022092;28;20549;-65
2021/01/31 01:11:00;;;;;;;18.70;8.43;;;-0.10;97.60;;;;;;5020326;28;20022;-65
2021/01/31 01:13:26;;;;;;;16.88;8.88;;;-0.20;97.10;;;;;;5020840;28;20080;-66
2021/01/31 01:15:52;;;;;;;18.83;9.23;;;-0.30;98.10;;;;;;5021541;28;20503;-66
2021/01/31 01:18:18;;;;;;;18.13;9.00;;;-0.40;97.70;;;;;;5019884;28;20026;-65
2021/01/31 01:20:43;;;;;;;21.95;10.98;;;-0.40;98.60;;;;;;5021254;28;20026;-67
2021/01/31 01:23:09;;;;;;;15.75;8.32;;;-0.30;98.20;;;;;;5013737;28;20551;-65
2021/01/31 01:25:34;;;;;;;16.02;8.20;;;-0.40;98.40;;;;;;5011346;28;20366;-65
2021/01/31 01:28:01;;;;;;;16.13;8.93;;;-0.10;97.40;;;;;;5011182;28;20028;-65
2021/01/31 01:30:29;;;;;;;17.05;8.63;;;-0.10;96.90;;;;;;5011158;28;20036;-65
2021/01/31 01:32:56;;;;;;;17.80;9.00;;;-0.20;97.50;;;;;;5010158;28;20034;-65
2021/01/31 01:35:22;;;;;;;16.33;8.93;;;-0.20;97.90;;;;;;5011232;28;20041;-65
2021/01/31 01:37:49;;;;;;;15.77;9.23;;;-0.20;98.00;;;;;;5010910;28;20026;-66
2021/01/31 01:40:26;;;;;;;17.50;9.13;;;-0.20;97.80;;;;;;5010979;28;20369;-65
2021/01/31 01:42:52;;;;;;;16.90;8.95;;;-0.40;97.90;;;;;;5010833;28;20030;-65
2021/01/31 01:45:19;;;;;;;16.27;8.70;;;-0.40;97.90;;;;;;5011002;28;20072;-65
2021/01/31 01:47:47;;;;;;;20.20;9.55;;;-0.30;98.00;;;;;;5010926;28;20105;-65
2021/01/31 01:50:36;;;;;;;17.27;10.25;;;-0.40;98.40;;;;;;5009761;28;20462;-65
2021/01/31 01:53:02;;;;;;;18.60;10.35;;;-0.50;98.80;;;;;;5010112;28;20057;-65
2021/01/31 01:55:32;;;;;;;17.73;9.10;;;-0.50;98.30;;;;;;5011364;28;20066;-65
2021/01/31 01:58:21;;;;;;;17.60;9.15;;;-0.60;98.80;;;;;;5010836;28;20022;-65
2021/01/31 02:00:49;;;;;;;18.25;10.05;;;-0.60;97.50;;;;;;5010609;28;20116;-66
2021/01/31 02:03:32;;;;;;;18.60;9.38;;;-0.60;97.80;;;;;;5010652;28;20037;-66
2021/01/31 02:06:11;;;;;;;16.50;8.93;;;-0.50;98.30;;;;;;5010718;28;20100;-65
2021/01/31 02:08:40;;;;;;;17.67;10.45;;;-0.60;97.90;;;;;;5009518;28;20420;-65
2021/01/31 02:11:06;;;;;;;18.77;9.07;;;-0.60;97.70;;;;;;5010811;28;20416;-66
2021/01/31 02:13:32;;;;;;;19.20;9.40;;;-0.70;97.70;;;;;;5010512;28;20030;-66
2021/01/31 02:15:59;;;;;;;18.25;9.45;;;-0.80;97.80;;;;;;5010771;28;20048;-65
2021/01/31 02:18:30;;;;;;;18.13;9.80;;;-1.00;98.80;;;;;;5010484;28;20030;-65
2021/01/31 02:21:05;;;;;;;18.13;9.77;;;-1.10;98.80;;;;;;5010762;28;20029;-65
2021/01/31 02:24:24;;;;;;;17.88;9.63;;;-1.20;99.00;;;;;;5010355;28;20492;-65
2021/01/31 02:27:22;;;;;;;18.13;9.85;;;-1.30;99.40;;;;;;4988389;28;20124;-65
2021/01/31 02:29:57;;;;;;;18.67;10.18;;;-1.40;99.80;;;;;;4988555;28;20487;-65
2021/01/31 02:32:28;;;;;;;18.35;9.98;;;-1.50;99.90;;;;;;4988250;28;20547;-65
2021/01/31 02:35:05;;;;;;;20.00;10.15;;;-1.50;99.90;;;;;;4988539;28;20121;-65
2021/01/31 02:37:46;;;;;;;19.00;9.95;;;-1.50;99.90;;;;;;4988352;28;20477;-66
2021/01/31 02:40:18;;;;;;;22.75;10.13;;;-1.60;99.90;;;;;;4988449;28;20062;-64
2021/01/31 02:42:59;;;;;;;21.90;10.95;;;-1.60;99.90;;;;;;4988477;28;20042;-65
2021/01/31 02:45:31;;;;;;;22.15;10.82;;;-1.60;99.90;;;;;;4991999;28;20034;-65
2021/01/31 02:48:06;;;;;;;22.20;9.65;;;-1.70;99.90;;;;;;4975499;28;20038;-66
2021/01/31 02:50:42;;;;;;;21.15;10.45;;;-1.70;99.90;;;;;;4991902;28;20030;-65
2021/01/31 02:53:29;;;;;;;20.13;10.25;;;-1.80;99.90;;;;;;4991539;28;20424;-65
2021/01/31 02:56:04;;;;;;;22.15;11.35;;;-1.90;99.90;;;;;;4991746;28;20084;-65
2021/01/31 02:58:36;;;;;;;22.55;11.30;;;-2.00;99.90;;;;;;4991609;28;20034;-65
2021/01/31 03:01:08;;;;;;;25.20;11.23;;;-2.00;99.90;;;;;;4995951;28;20038;-65
2021/01/31 03:03:56;;;;;;;20.40;10.48;;;-2.00;99.90;;;;;;5013569;28;20113;-66
2021/01/31 03:06:37;;;;;;;19.85;9.73;;;-2.10;99.90;;;;;;5012297;28;20025;-66
2021/01/31 03:09:16;;;;;;;20.60;11.25;;;-2.10;99.90;;;;;;5013586;28;20088;-65
2021/01/31 03:12:14;;;;;;;21.20;10.98;;;-2.20;99.90;;;;;;5013626;28;20742;-65
2021/01/31 03:14:47;;;;;;;22.77;11.55;;;-2.30;99.90;;;;;;5011028;28;20117;-65
2021/01/31 03:17:21;;;;;;;24.88;12.40;;;-2.30;99.90;;;;;;4993785;28;20034;-65
2021/01/31 03:19:57;;;;;;;27.95;13.38;;;-2.40;99.90;;;;;;4994641;28;20033;-65
2021/01/31 03:22:27;;;;;;;23.52;11.48;;;-2.40;99.90;;;;;;5010679;28;20038;-65
2021/01/31 03:25:00;;;;;;;24.27;11.88;;;-2.50;99.90;;;;;;5010957;28;20077;-65
2021/01/31 03:27:38;;;;;;;23.80;11.63;;;-2.50;99.90;;;;;;4994482;28;20049;-65
2021/01/31 03:30:05;;;;;;;21.85;10.40;;;-2.50;99.90;;;;;;5010798;28;20511;-64
2021/01/31 03:32:44;;;;;;;21.63;10.77;;;-2.30;99.90;;;;;;5010528;28;20507;-65
2021/01/31 03:35:33;;;;;;;19.88;9.60;;;-2.20;99.90;;;;;;5010748;28;20068;-65
2021/01/31 03:38:10;;;;;;;20.45;9.25;;;-2.20;99.90;;;;;;5010473;28;20041;-65
2021/01/31 03:40:37;;;;;;;19.63;9.60;;;-1.90;99.90;;;;;;5010625;28;20061;-65
2021/01/31 03:43:03;;;;;;;22.00;9.93;;;-2.10;99.90;;;;;;5010262;28;20230;-64
2021/01/31 03:45:34;;;;;;;20.63;9.68;;;-2.10;99.90;;;;;;4993974;28;20038;-65
2021/01/31 03:48:07;;;;;;;16.90;8.65;;;-2.00;99.90;;;;;;5007157;28;20069;-65
2021/01/31 03:50:33;;;;;;;21.50;10.68;;;-2.00;99.90;;;;;;5017165;28;20084;-65
2021/01/31 03:52:59;;;;;;;18.40;9.55;;;-1.80;99.90;;;;;;5030982;28;20472;-65
2021/01/31 03:55:25;;;;;;;19.67;10.35;;;-2.00;99.90;;;;;;5031672;28;20030;-66
2021/01/31 03:57:58;;;;;;;28.75;13.82;;;-2.20;99.90;;;;;;5032217;28;20095;-65
2021/01/31 04:00:26;;;;;;;34.20;14.90;;;-2.30;99.90;;;;;;5031252;28;20113;-65
2021/01/31 04:03:16;;;;;;;23.65;10.32;;;-2.20;99.90;;;;;;5032132;28;20018;-65
2021/01/31 04:05:55;;;;;;;21.23;10.27;;;-2.50;99.90;;;;;;5032341;28;20018;-64
2021/01/31 04:08:21;;;;;;;20.42;10.18;;;-2.60;99.90;;;;;;5032239;28;20036;-64
2021/01/31 04:10:47;;;;;;;20.02;9.20;;;-2.50;99.90;;;;;;5032321;28;20029;-64
2021/01/31 04:13:13;;;;;;;19.15;8.73;;;-2.50;99.90;;;;;;5031882;28;20038;-65
2021/01/31 04:15:45;;;;;;;18.60;9.32;;;-2.50;99.90;;;;;;5032171;28;20475;-64
2021/01/31 04:18:12;;;;;;;22.33;10.48;;;-2.60;99.90;;;;;;5031854;28;20025;-65
2021/01/31 04:20:38;;;;;;;21.50;11.10;;;-2.60;99.90;;;;;;5031926;28;20025;-65
2021/01/31 04:23:04;;;;;;;21.58;9.60;;;-2.70;99.90;;;;;;5030429;28;20018;-66
2021/01/31 04:25:30;;;;;;;18.83;9.13;;;-2.70;99.90;;;;;;5030674;28;20068;-65
2021/01/31 04:27:56;;;;;;;21.17;9.98;;;-2.70;99.90;;;;;;5031850;28;20045;-64
2021/01/31 04:30:23;;;;;;;19.52;9.75;;;-2.80;99.90;;;;;;5031856;28;20048;-65
2021/01/31 04:32:48;;;;;;;19.10;10.13;;;-2.80;99.90;;;;;;5031512;28;20029;-64
2021/01/31 04:35:15;;;;;;;22.05;9.88;;;-2.90;99.90;;;;;;5031648;28;20392;-66
2021/01/31 04:37:41;;;;;;;19.38;8.55;;;-2.90;99.90;;;;;;5031867;28;20051;-64
2021/01/31 04:40:10;;;;;;;19.30;8.98;;;-3.00;99.90;;;;;;5031636;28;20025;-65
2021/01/31 04:42:36;;;;;;;17.35;7.65;;;-3.10;99.90;;;;;;5031430;28;20221;-65
2021/01/31 04:45:04;;;;;;;22.90;10.00;;;-3.20;99.90;;;;;;5030317;28;20017;-65
2021/01/31 04:47:38;;;;;;;20.77;9.90;;;-3.30;99.90;;;;;;5031453;28;20025;-65
2021/01/31 04:50:09;;;;;;;20.98;9.38;;;-3.30;99.90;;;;;;5031503;28;20499;-65
2021/01/31 04:52:34;;;;;;;22.23;10.73;;;-3.30;99.90;;;;;;5031416;28;20124;-64
2021/01/31 04:55:06;;;;;;;23.60;10.55;;;-3.30;99.90;;;;;;5030044;28;20539;-65
2021/01/31 04:57:40;;;;;;;24.05;10.80;;;-3.40;99.90;;;;;;5031311;28;20112;-65
2021/01/31 05:00:17;;;;;;;20.00;9.70;;;-3.50;99.90;;;;;;5031318;28;20074;-65
2021/01/31 05:02:47;;;;;;;20.27;9.90;;;-3.50;99.90;;;;;;5031088;28;20033;-66
2021/01/31 05:05:31;;;;;;;22.13;10.02;;;-3.60;99.90;;;;;;5031197;28;20045;-65
2021/01/31 05:08:00;;;;;;;22.10;9.98;;;-3.70;99.90;;;;;;5031155;28;20033;-65
2021/01/31 05:10:27;;;;;;;20.42;9.60;;;-3.70;99.90;;;;;;5031218;28;20021;-65
2021/01/31 05:12:58;;;;;;;20.98;9.82;;;-3.70;99.90;;;;;;5030877;28;20029;-65
2021/01/31 05:15:30;;;;;;;22.38;10.35;;;-3.90;99.90;;;;;;5029810;28;20022;-65
2021/01/31 05:17:58;;;;;;;20.58;9.65;;;-3.90;99.90;;;;;;5030648;28;20026;-65
2021/01/31 05:20:28;;;;;;;19.90;9.27;;;-3.90;99.90;;;;;;5031057;28;20491;-64
2021/01/31 05:22:56;;;;;;;;;;;-3.80;99.90;;;;;;5031285;28;20033;-64
2021/01/31 05:25:26;;;;;;;20.58;8.75;;;-3.80;99.90;;;;;;5031019;28;19911;-64
2021/01/31 05:27:57;;;;;;;20.45;9.48;;;-3.90;99.90;;;;;;5030956;28;20021;-65
2021/01/31 05:30:24;;;;;;;23.15;10.73;;;-4.00;99.90;;;;;;5029704;28;20104;-62
2021/01/31 05:33:02;;;;;;;23.50;10.95;;;-4.00;99.90;;;;;;5030714;28;20067;-64
2021/01/31 05:35:31;;;;;;;22.67;10.45;;;-4.10;99.90;;;;;;5030936;28;20022;-64
2021/01/31 05:37:56;;;;;;;20.70;10.05;;;-4.10;99.90;;;;;;5030865;28;20035;-70
2021/01/31 05:40:34;;;;;;;24.70;10.77;;;-4.20;99.90;;;;;;5030939;28;20030;-64
2021/01/31 05:43:01;;;;;;;21.80;10.38;;;-4.30;99.90;;;;;;5029442;28;20025;-64
2021/01/31 05:45:35;;;;;;;24.80;10.27;;;-4.40;99.90;;;;;;5031075;28;20544;-63
2021/01/31 05:48:20;;;;;;;21.40;10.35;;;-4.30;99.90;;;;;;5031615;28;20495;-64
2021/01/31 05:50:46;;;;;;;23.05;10.15;;;-4.30;99.90;;;;;;5029948;28;20037;-63
2021/01/31 05:53:35;;;;;;;22.90;10.77;;;-4.30;99.90;;;;;;5030701;28;20484;-64
2021/01/31 05:56:22;;;;;;;24.90;12.25;;;-4.40;99.90;;;;;;5030919;28;20018;-64
2021/01/31 05:59:07;;;;;;;35.15;17.23;;;-4.40;99.90;;;;;;5029415;28;20037;-64
2021/01/31 06:01:33;;;;;;;22.83;10.77;;;-4.40;99.90;;;;;;5030817;28;20079;-64
2021/01/31 06:04:13;;;;;;;28.05;12.38;;;-4.40;99.90;;;;;;5030471;28;20101;-64
2021/01/31 06:06:40;;;;;;;25.65;11.90;;;-4.50;99.90;;;;;;5029316;28;20021;-65
2021/01/31 06:09:33;;;;;;;30.02;13.18;;;-4.60;99.90;;;;;;5030590;28;20032;-64
2021/01/31 06:12:19;;;;;;;29.25;13.73;;;-4.60;99.90;;;;;;5030373;28;20395;-65
2021/01/31 06:14:58;;;;;;;32.95;13.52;;;-4.60;99.90;;;;;;5030547;28;20395;-65
2021/01/31 06:17:29;;;;;;;23.97;11.80;;;-4.60;99.90;;;;;;5030388;28;20056;-64
2021/01/31 06:20:24;;;;;;;36.90;18.80;;;-4.70;99.90;;;;;;5033038;28;20028;-65
2021/01/31 06:22:50;;;;;;;31.48;14.02;;;-4.70;99.90;;;;;;5034110;28;20068;-64
2021/01/31 06:25:37;;;;;;;32.08;15.35;;;-4.80;99.90;;;;;;5034390;28;20026;-64
2021/01/31 06:28:09;;;;;;;30.30;12.63;;;-4.90;99.90;;;;;;5034194;28;20029;-65
2021/01/31 06:30:41;;;;;;;28.48;12.88;;;-4.90;99.90;;;;;;5034203;28;20025;-64
2021/01/31 06:33:07;;;;;;;25.05;12.70;;;-4.80;99.90;;;;;;5033920;28;20017;-65
2021/01/31 06:35:33;;;;;;;30.60;13.57;;;-4.80;99.90;;;;;;5034117;28;20025;-64
2021/01/31 06:38:01;;;;;;;23.08;12.32;;;-4.80;99.90;;;;;;5033910;28;20029;-64
2021/01/31 06:40:50;;;;;;;26.77;12.35;;;-4.90;99.90;;;;;;5033939;28;20026;-64
2021/01/31 06:43:23;;;;;;;25.97;12.50;;;-4.90;99.90;;;;;;5033723;28;20101;-64
2021/01/31 06:45:59;;;;;;;25.67;12.45;;;-4.90;99.90;;;;;;5033887;28;20343;-65
2021/01/31 06:48:40;;;;;;;25.90;12.65;;;-4.90;99.90;;;;;;5033734;28;20033;-64
2021/01/31 06:51:22;;;;;;;25.13;12.93;;;-5.00;99.90;;;;;;5033889;28;20383;-64
2021/01/31 06:54:00;;;;;;;28.17;13.90;;;-5.00;99.90;;;;;;5033474;28;20033;-64
2021/01/31 06:56:28;;;;;;;26.55;12.10;;;-5.00;99.90;;;;;;5033689;28;20045;-64
2021/01/31 06:59:15;;;;;;;23.65;11.60;;;-5.00;99.90;;;;;;5033467;28;20021;-64
2021/01/31 07:02:03;;;;;;;22.90;11.13;;;-5.00;99.90;;;;;;5033456;28;20033;-64
2021/01/31 07:05:00;;;;;;;25.25;12.13;;;-5.00;99.90;;;;;;5033576;28;20057;-64
2021/01/31 07:07:53;;;;;;;25.83;13.85;;;-5.00;99.90;;;;;;5023694;28;20026;-64
2021/01/31 07:10:39;;;;;;;29.05;12.68;;;-5.00;99.90;;;;;;5023096;28;20026;-64
2021/01/31 07:13:16;;;;;;;25.63;12.05;;;-5.10;99.90;;;;;;5015757;28;20444;-64
2021/01/31 07:16:03;;;;;;;27.23;12.95;;;-5.10;99.90;;;;;;5012362;28;20079;-64
2021/01/31 07:18:34;;;;;;;31.13;14.05;;;-5.20;99.90;;;;;;5060281;23;20148;-67
2021/01/31 07:21:02;;;;;;;27.75;12.80;;;-5.20;99.90;;;;;;5053159;28;20017;-66
2021/01/31 07:23:37;;;;;;;27.58;13.75;;;-5.20;99.90;;;;;;5052184;28;20028;-66
2021/01/31 07:26:38;;;;;;;26.65;12.48;;;-5.10;99.90;;;;;;5052934;28;20079;-67
2021/01/31 07:29:11;;;;;;;29.20;13.60;;;-5.10;99.90;;;;;;5014077;28;20044;-67
2021/01/31 07:31:45;;;;;;;32.80;14.25;;;-5.10;99.90;;;;;;5032429;28;20061;-66
2021/01/31 07:34:14;;;;;;;33.40;15.48;;;-5.10;99.90;;;;;;5032849;28;20033;-66
2021/01/31 07:36:52;;;;;;;28.42;15.13;;;-5.00;99.90;;;;;;5032973;28;20423;-66
2021/01/31 07:39:25;;;;;;;29.42;13.90;;;-5.00;99.90;;;;;;5032804;28;20041;-67
2021/01/31 07:41:53;;;;;;;33.45;16.15;;;-5.00;99.90;;;;;;5031025;28;20029;-67
2021/01/31 07:44:25;;;;;;;32.90;15.75;;;-5.10;99.90;;;;;;5032934;28;20032;-67
2021/01/31 07:46:54;;;;;;;30.23;14.75;;;-5.00;99.90;;;;;;5032965;28;20094;-67
2021/01/31 07:49:20;;;;;;;29.13;14.95;;;-4.90;99.90;;;;;;5032776;28;20216;-67
2021/01/31 07:51:48;;;;;;;33.30;15.48;;;-4.80;99.90;;;;;;5032156;28;20493;-67
2021/01/31 07:54:27;;;;;;;45.13;20.92;;;-4.80;99.90;;;;;;5032584;28;20419;-66
2021/01/31 07:57:13;;;;;;;43.30;23.88;;;-4.80;99.90;;;;;;5032620;28;20051;-68
2021/01/31 07:59:40;;;;;;;35.30;17.08;;;-4.80;99.90;;;;;;5031198;28;20044;-67
2021/01/31 08:02:08;;;;;;;30.67;14.95;;;-4.80;99.90;;;;;;5031818;28;20152;-67
2021/01/31 08:04:34;;;;;;;28.90;14.73;;;-4.80;99.90;;;;;;5032465;28;20025;-66
2021/01/31 08:07:01;;;;;;;27.35;14.23;;;-4.70;99.90;;;;;;5032231;28;20017;-65
2021/01/31 08:09:27;;;;;;;33.58;14.80;;;-4.70;99.90;;;;;;5032318;28;20044;-66
2021/01/31 08:12:01;;;;;;;28.02;14.00;;;-4.60;99.90;;;;;;5031579;28;20025;-65
2021/01/31 08:15:09;;;;;;;34.13;15.88;;;-4.50;99.90;;;;;;5030992;28;20033;-67
2021/01/31 08:17:53;;;;;;;53.58;25.77;;;-4.50;99.90;;;;;;5032023;28;20044;-64
2021/01/31 08:20:23;;;;;;;38.10;19.33;;;-4.50;99.90;;;;;;5030997;28;20021;-65
2021/01/31 08:22:49;;;;;;;46.38;24.73;;;-4.40;99.90;;;;;;5031719;28;20380;-66
2021/01/31 08:25:14;;;;;;;59.85;29.40;;;-4.30;99.90;;;;;;5032284;28;20022;-64
2021/01/31 08:27:43;;;;;;;58.13;29.92;;;-4.30;99.90;;;;;;5027165;28;20981;-65
2021/01/31 08:30:16;;;;;;;61.88;33.03;;;-4.20;99.90;;;;;;5022985;28;20025;-65
2021/01/31 08:35:41;;;;;;;35.85;18.40;;;-4.10;99.90;;;;;;5032275;28;20080;-66
2021/01/31 08:38:21;;;;;;;37.08;17.15;;;-4.10;99.90;;;;;;5031550;28;20495;-65
2021/01/31 08:41:08;;;;;;;33.00;17.00;;;-4.10;99.90;;;;;;5030455;28;20025;-66
2021/01/31 08:43:36;;;;;;;55.80;28.98;;;-4.00;99.90;;;;;;5029973;28;20556;-68
2021/01/31 08:46:08;;;;;;;40.63;22.08;;;-3.90;99.90;;;;;;5031711;28;20101;-68
2021/01/31 08:48:34;;;;;;;47.25;24.05;;;-3.80;99.90;;;;;;5031682;28;20040;-67
2021/01/31 08:51:19;;;;;;;49.75;23.42;;;-3.70;99.90;;;;;;5031662;28;20026;-67
2021/01/31 08:53:44;;;;;;;42.03;19.83;;;-3.60;99.90;;;;;;5031386;28;20044;-68
2021/01/31 08:56:45;;;;;;;42.78;20.98;;;-3.50;99.90;;;;;;5011798;28;20030;-67
2021/01/31 08:59:21;;;;;;;35.42;17.27;;;-3.40;99.90;;;;;;5030069;28;20052;-68
2021/01/31 09:01:51;;;;;;;35.83;18.48;;;-3.30;99.90;;;;;;5031540;28;20487;-67
2021/01/31 09:04:19;;;;;;;35.35;16.65;;;-3.30;99.90;;;;;;5031138;28;20029;-67
2021/01/31 09:06:48;;;;;;;30.58;14.82;;;-3.20;99.90;;;;;;5031329;28;20030;-67
2021/01/31 09:09:29;;;;;;;33.63;14.82;;;-3.10;99.90;;;;;;5031234;28;20148;-67
2021/01/31 09:11:59;;;;;;;34.88;16.27;;;-3.10;99.90;;;;;;5031032;28;20025;-67
2021/01/31 09:14:37;;;;;;;33.53;15.77;;;-3.20;99.90;;;;;;5031348;28;20036;-75
2021/01/31 09:17:06;;;;;;;32.47;15.45;;;-3.20;99.90;;;;;;5029600;28;20030;-70
2021/01/31 09:19:32;;;;;;;36.60;16.85;;;-3.20;99.90;;;;;;5030934;28;20101;-67
2021/01/31 09:22:10;;;;;;;33.25;16.98;;;-3.10;99.90;;;;;;5030881;28;20391;-67
2021/01/31 09:24:38;;;;;;;36.65;16.20;;;-3.00;99.90;;;;;;5029758;28;20052;-69
2021/01/31 09:27:06;;;;;;;38.63;18.65;;;-2.90;99.90;;;;;;5030334;28;20017;-67
2021/01/31 09:29:32;;;;;;;40.50;18.38;;;-2.80;99.90;;;;;;5029716;28;20021;-68
2021/01/31 09:32:23;;;;;;;39.40;17.58;;;-2.80;99.90;;;;;;5030729;28;20037;-67
2021/01/31 09:34:49;;;;;;;;;;;-2.60;99.90;;;;;;5031352;28;20053;-67
2021/01/31 09:37:26;;;;;;;36.45;17.42;;;-2.30;99.90;;;;;;5030872;28;20298;-68
2021/01/31 09:39:54;;;;;;;34.97;17.30;;;-2.30;99.90;;;;;;5030674;28;20433;-68
2021/01/31 09:42:20;;;;;;;32.30;15.75;;;-2.10;99.90;;;;;;5030594;28;20021;-67
2021/01/31 09:44:51;;;;;;;35.33;16.48;;;-1.90;99.90;;;;;;5030693;28;20029;-68
2021/01/31 09:47:19;;;;;;;32.33;16.45;;;-1.80;99.90;;;;;;5030696;28;20030;-67
2021/01/31 09:49:52;;;;;;;43.05;18.70;;;-1.60;99.90;;;;;;5030591;28;20112;-67
2021/01/31 09:52:18;;;;;;;37.60;17.42;;;-1.50;99.90;;;;;;5029117;28;20095;-66
2021/01/31 09:54:44;;;;;;;39.53;18.10;;;-1.40;99.90;;;;;;5034744;28;20338;-67
2021/01/31 09:57:22;;;;;;;33.58;17.00;;;-1.30;99.90;;;;;;5034684;28;20030;-67
2021/01/31 09:59:59;;;;;;;37.30;17.55;;;-1.30;99.90;;;;;;5034662;28;20018;-67
2021/01/31 10:02:30;;;;;;;39.17;18.50;;;-1.20;99.90;;;;;;5034417;28;20392;-68
2021/01/31 10:05:00;;;;;;;46.55;19.63;;;-1.00;99.50;;;;;;5034653;28;20037;-67
2021/01/31 10:07:44;;;;;;;39.85;18.67;;;-0.80;99.50;;;;;;5034490;28;20439;-67
2021/01/31 10:10:32;;;;;;;44.47;18.75;;;-0.80;99.90;;;;;;5034557;28;20500;-67
2021/01/31 10:13:38;;;;;;;37.78;17.25;;;-0.70;99.20;;;;;;5034142;28;20029;-68
2021/01/31 10:16:16;;;;;;;33.05;15.70;;;-0.50;98.80;;;;;;5034518;28;20049;-67
2021/01/31 10:18:42;;;;;;;33.40;16.42;;;-0.60;98.30;;;;;;5034184;28;20052;-68
2021/01/31 10:21:26;;;;;;;35.25;16.05;;;-0.30;99.00;;;;;;5034202;28;20032;-67
2021/01/31 10:24:16;;;;;;;38.65;19.90;;;-0.20;98.70;;;;;;5034057;28;20423;-67
2021/01/31 10:26:42;;;;;;;30.90;15.25;;;-0.30;98.90;;;;;;5034143;28;20030;-68
2021/01/31 10:29:08;;;;;;;32.35;16.20;;;-0.10;97.70;;;;;;5034074;28;20132;-67
2021/01/31 10:31:36;;;;;;;29.05;14.77;;;0.00;97.10;;;;;;5034055;28;20025;-67
2021/01/31 10:34:04;;;;;;;27.80;14.90;;;0.10;97.40;;;;;;5033901;28;20028;-68
2021/01/31 10:36:41;;;;;;;31.83;15.88;;;0.20;97.70;;;;;;5033968;28;20041;-68
2021/01/31 10:39:09;;;;;;;30.85;14.88;;;0.40;97.00;;;;;;5033797;28;20030;-68
2021/01/31 10:41:40;;;;;;;33.90;15.95;;;0.50;97.40;;;;;;5033903;28;20384;-67
2021/01/31 10:44:08;;;;;;;32.38;15.77;;;0.60;96.90;;;;;;5032279;28;20025;-67
2021/01/31 10:46:35;;;;;;;33.05;14.80;;;0.70;96.90;;;;;;5034019;28;20048;-67
2021/01/31 10:49:01;;;;;;;28.10;14.18;;;0.80;96.10;;;;;;5032772;28;20029;-67
2021/01/31 10:51:30;;;;;;;29.98;15.30;;;0.80;96.50;;;;;;5033774;28;20025;-69
2021/01/31 10:53:56;;;;;;;25.75;12.77;;;0.80;96.60;;;;;;5033513;28;20022;-67
2021/01/31 10:56:21;;;;;;;26.73;13.13;;;0.80;96.40;;;;;;5033594;28;20022;-67
2021/01/31 10:58:47;;;;;;;28.48;13.65;;;0.90;96.30;;;;;;5032148;28;20084;-67
2021/01/31 11:01:13;;;;;;;38.00;17.35;;;1.00;96.00;;;;;;5033676;28;20104;-68
2021/01/31 11:03:38;;;;;;;27.80;13.98;;;1.00;96.60;;;;;;5033205;28;20029;-67
2021/01/31 11:06:04;;;;;;;26.05;13.88;;;1.00;96.20;;;;;;5034200;28;20030;-67
2021/01/31 11:08:30;;;;;;;29.05;16.05;;;1.20;96.40;;;;;;5033622;28;20034;-68
2021/01/31 11:10:56;;;;;;;25.50;13.90;;;1.20;96.40;;;;;;5033553;28;20467;-67
2021/01/31 11:13:22;;;;;;;25.42;12.75;;;1.40;96.00;;;;;;5033387;28;20109;-67
2021/01/31 11:15:47;;;;;;;28.17;13.88;;;1.60;95.90;;;;;;5033820;28;20104;-67
2021/01/31 11:18:14;;;;;;;27.08;12.95;;;1.70;95.70;;;;;;5032757;28;20084;-70
2021/01/31 11:20:39;;;;;;;24.60;12.70;;;1.40;93.70;;;;;;5031101;28;20483;-68
2021/01/31 11:23:05;;;;;;;34.33;14.02;;;1.40;96.10;;;;;;5032111;28;20071;-69
2021/01/31 11:25:30;;;;;;;25.10;12.98;;;1.60;95.80;;;;;;5030946;28;20017;-67
2021/01/31 11:27:56;;;;;;;22.63;11.27;;;1.80;95.00;;;;;;5031857;28;20055;-67
2021/01/31 11:30:22;;;;;;;24.15;12.52;;;1.60;93.90;;;;;;5032118;28;20025;-68
2021/01/31 11:32:47;;;;;;;22.55;12.52;;;1.70;95.10;;;;;;5030377;28;20026;-68
2021/01/31 11:35:13;;;;;;;26.00;13.27;;;1.80;95.80;;;;;;5032041;28;20112;-67
2021/01/31 11:37:38;;;;;;;24.40;13.02;;;1.90;95.50;;;;;;5031848;28;20030;-67
2021/01/31 11:40:06;;;;;;;24.77;12.35;;;2.70;94.30;;;;;;5032316;28;20076;-68
2021/01/31 11:42:32;;;;;;;20.65;11.57;;;4.60;91.20;;;;;;5031440;28;20041;-68
2021/01/31 11:44:57;;;;;;;19.98;10.77;;;6.40;75.50;;;;;;5031846;28;20225;-67
2021/01/31 11:47:23;;;;;;;21.25;11.65;;;7.40;67.00;;;;;;5031794;28;20025;-68
2021/01/31 11:49:49;;;;;;;19.90;10.93;;;8.70;62.00;;;;;;5031635;28;20442;-68
2021/01/31 11:52:15;;;;;;;22.55;11.73;;;9.50;58.40;;;;;;5031361;28;20030;-67
2021/01/31 11:54:41;;;;;;;18.27;10.13;;;10.10;53.90;;;;;;5031523;28;20057;-68
2021/01/31 11:57:06;;;;;;;17.45;9.45;;;9.50;53.40;;;;;;5031428;28;20029;-68
2021/01/31 11:59:32;;;;;;;16.98;9.63;;;9.60;50.30;;;;;;5031527;28;20293;-68
2021/01/31 12:01:57;;;;;;;18.70;10.13;;;10.10;51.90;;;;;;5031261;28;20305;-67
2021/01/31 12:04:23;;;;;;;20.02;11.07;;;10.30;53.00;;;;;;5031425;28;20041;-68
2021/01/31 12:06:48;;;;;;;20.80;10.70;;;10.30;53.00;;;;;;5031347;28;20029;-68
2021/01/31 12:09:14;;;;;;;23.42;12.43;;;9.40;50.80;;;;;;5031296;28;20116;-68
2021/01/31 12:11:39;;;;;;;17.25;10.13;;;9.30;56.30;;;;;;5031190;28;20037;-68
2021/01/31 12:14:05;;;;;;;17.30;9.57;;;10.20;56.80;;;;;;5031304;28;20151;-67
2021/01/31 12:16:30;;;;;;;19.48;10.90;;;10.90;50.60;;;;;;5030143;28;20053;-67
2021/01/31 12:18:56;;;;;;;18.10;10.52;;;11.20;48.80;;;;;;5011439;28;543533;-68
2021/01/31 12:21:25;;;;;;;15.68;9.77;;;11.00;48.40;;;;;;5022701;28;20068;-69
2021/01/31 12:23:50;;;;;;;18.58;9.60;;;11.00;46.60;;;;;;5013052;28;20352;-67
2021/01/31 12:26:16;;;;;;;22.65;10.57;;;10.90;48.10;;;;;;5012037;28;20504;-67
2021/01/31 12:28:41;;;;;;;18.08;9.95;;;11.30;46.60;;;;;;5014641;28;20492;-68
2021/01/31 12:31:07;;;;;;;16.38;9.95;;;11.30;46.30;;;;;;5016058;28;20022;-68
2021/01/31 12:33:34;;;;;;;18.13;10.20;;;11.40;46.40;;;;;;5030885;28;20033;-68
2021/01/31 12:35:59;;;;;;;16.55;9.27;;;11.50;46.90;;;;;;5031769;28;20053;-68
2021/01/31 12:38:25;;;;;;;17.77;9.50;;;12.10;45.30;;;;;;5031534;28;20053;-68
2021/01/31 12:40:50;;;;;;;15.95;9.02;;;13.10;45.40;;;;;;5031749;28;20022;-68
2021/01/31 12:43:16;;;;;;;15.55;9.57;;;13.10;45.70;;;;;;5031421;28;20018;-69
2021/01/31 12:45:42;;;;;;;16.45;9.13;;;12.80;43.30;;;;;;5031762;28;20021;-68
2021/01/31 12:48:07;;;;;;;13.23;8.50;;;12.80;42.60;;;;;;5031575;28;20061;-75
2021/01/31 12:50:33;;;;;;;15.25;8.60;;;13.20;43.70;;;;;;5031490;28;20063;-67
2021/01/31 12:52:59;;;;;;;14.60;9.13;;;12.90;42.80;;;;;;5031161;28;20029;-68
2021/01/31 12:55:24;;;;;;;16.75;9.70;;;13.20;43.70;;;;;;5030358;28;20029;-67
2021/01/31 12:57:50;;;;;;;17.02;9.68;;;11.40;43.10;;;;;;5031458;28;20025;-67